Time;durP1;ratioP1;P1;durP2;ratioP2;P2;SDS_P1;SDS_P2;PMS_P1;PMS_P2;Temp;Humidity;BMP_temperature;BMP_pressure;BME280_temperature;BME280_humidity;BME280_pressure;Samples;Min_cycle;Max_cycle;Signal;HPM_P1;HPM_P2
2023/06/19 00:00:15;;;;;;;4.90;4.60;;;;;;;;;;5031848;28;20379;-83
2023/06/19 00:02:41;;;;;;;5.10;4.70;;;;;;;;;;5032042;28;20470;-83
2023/06/19 00:05:07;;;;;;;4.80;4.50;;;;;;;;;;5031943;28;20801;-83
2023/06/19 00:07:33;;;;;;;4.90;4.50;;;;;;;;;;5031546;28;20880;-83
2023/06/19 00:09:59;;;;;;;5.22;4.82;;;;;;;;;;5031818;28;20387;-83
2023/06/19 00:12:25;;;;;;;5.03;4.72;;;;;;;;;;5031831;28;20383;-83
2023/06/19 00:14:51;;;;;;;5.35;4.95;;;;;;;;;;5031524;28;20940;-83
2023/06/19 00:17:17;;;;;;;5.82;5.30;;;;;;;;;;5031472;28;20425;-84
2023/06/19 00:19:44;;;;;;;5.07;4.68;;;;;;;;;;5031625;28;20419;-83
2023/06/19 00:22:10;;;;;;;5.25;4.85;;;;;;;;;;5031645;28;20847;-83
2023/06/19 00:24:36;;;;;;;5.57;5.07;;;;;;;;;;5030437;28;20478;-83
2023/06/19 00:27:02;;;;;;;6.77;5.20;;;;;;;;;;5031454;28;20398;-83
2023/06/19 00:29:29;;;;;;;5.50;5.10;;;;;;;;;;5031717;28;20740;-83
2023/06/19 00:31:55;;;;;;;5.38;4.97;;;;;;;;;;5031806;28;20374;-83
2023/06/19 00:34:24;;;;;;;5.43;5.03;;;;;;;;;;5031556;28;20391;-83
2023/06/19 00:36:50;;;;;;;5.83;5.27;;;;;;;;;;5031225;28;20407;-83
2023/06/19 00:39:15;;;;;;;5.65;4.80;;;;;;;;;;5031083;28;20752;-83
2023/06/19 00:41:43;;;;;;;5.40;5.00;;;;;;;;;;5031490;28;20384;-83
2023/06/19 00:44:09;;;;;;;6.00;5.10;;;;;;;;;;5031316;28;20387;-83
2023/06/19 00:46:38;;;;;;;5.43;5.03;;;;;;;;;;5031207;28;20450;-83
2023/06/19 00:49:04;;;;;;;5.88;5.28;;;;;;;;;;5031328;28;20395;-83
2023/06/19 00:51:30;;;;;;;5.63;5.07;;;;;;;;;;5031290;28;20387;-83
2023/06/19 00:53:56;;;;;;;5.25;4.85;;;;;;;;;;5040359;28;20455;-83
2023/06/19 00:56:22;;;;;;;5.43;4.93;;;;;;;;;;5041284;28;20500;-83
2023/06/19 00:58:48;;;;;;;5.50;5.10;;;;;;;;;;5037568;28;20453;-83
2023/06/19 01:01:14;;;;;;;5.82;5.25;;;;;;;;;;5040132;28;20378;-83
2023/06/19 01:03:40;;;;;;;5.90;5.40;;;;;;;;;;5042373;28;20883;-83
2023/06/19 01:06:09;;;;;;;6.10;5.38;;;;;;;;;;5051004;28;20468;-83
2023/06/19 01:08:54;;;;;;;7.35;5.20;;;;;;;;;;5050774;28;20413;-83
2023/06/19 01:11:23;;;;;;;5.68;5.20;;;;;;;;;;5051041;28;20381;-83
2023/06/19 01:13:51;;;;;;;5.38;4.90;;;;;;;;;;5050978;28;20413;-83
2023/06/19 01:16:18;;;;;;;5.35;4.97;;;;;;;;;;5050868;28;20416;-83
2023/06/19 01:18:45;;;;;;;5.40;4.95;;;;;;;;;;5044992;28;20383;-83
2023/06/19 01:21:12;;;;;;;5.72;5.32;;;;;;;;;;5031045;28;20383;-83
2023/06/19 01:23:38;;;;;;;5.73;5.23;;;;;;;;;;5030932;28;20383;-84
2023/06/19 01:26:04;;;;;;;5.90;5.47;;;;;;;;;;5030882;28;20391;-83
2023/06/19 01:28:30;;;;;;;5.70;5.30;;;;;;;;;;5030947;28;20383;-82
2023/06/19 01:30:58;;;;;;;5.50;5.10;;;;;;;;;;5030976;28;20884;-83
2023/06/19 01:33:28;;;;;;;5.50;5.00;;;;;;;;;;5030775;28;20502;-83
2023/06/19 01:35:55;;;;;;;5.50;5.10;;;;;;;;;;5029392;28;20410;-83
2023/06/19 01:38:25;;;;;;;5.65;5.25;;;;;;;;;;5030861;28;20383;-83
2023/06/19 01:40:51;;;;;;;6.00;5.50;;;;;;;;;;5030877;28;20375;-83
2023/06/19 01:43:17;;;;;;;6.13;5.72;;;;;;;;;;5030335;28;20383;-83
2023/06/19 01:45:44;;;;;;;6.40;5.95;;;;;;;;;;5028778;28;20725;-83
2023/06/19 01:48:10;;;;;;;6.25;5.85;;;;;;;;;;5030755;28;20441;-83
2023/06/19 01:50:36;;;;;;;6.57;6.07;;;;;;;;;;5030771;28;20399;-83
2023/06/19 01:53:02;;;;;;;6.10;5.70;;;;;;;;;;5030674;28;20375;-84
2023/06/19 01:55:27;;;;;;;5.20;4.90;;;;;;;;;;5047147;28;20778;-83
2023/06/19 01:57:53;;;;;;;6.05;5.55;;;;;;;;;;5039449;28;20382;-83
2023/06/19 02:00:19;;;;;;;5.90;5.50;;;;;;;;;;5037579;28;20387;-83
2023/06/19 02:02:45;;;;;;;6.63;5.90;;;;;;;;;;5041848;28;20420;-83
2023/06/19 02:05:13;;;;;;;6.30;5.87;;;;;;;;;;5049479;28;20530;-83
2023/06/19 02:07:39;;;;;;;6.38;5.88;;;;;;;;;;5036033;28;20876;-83
2023/06/19 02:10:05;;;;;;;6.50;5.90;;;;;;;;;;5034110;28;20745;-83
2023/06/19 02:12:31;;;;;;;6.55;6.15;;;;;;;;;;5033807;28;20391;-83
2023/06/19 02:14:57;;;;;;;6.87;6.27;;;;;;;;;;5033740;28;20450;-83
2023/06/19 02:17:23;;;;;;;6.33;5.93;;;;;;;;;;5033860;28;20882;-83
2023/06/19 02:19:49;;;;;;;6.27;5.67;;;;;;;;;;5033824;28;20382;-82
2023/06/19 02:22:15;;;;;;;6.50;5.90;;;;;;;;;;5033660;28;20425;-82
2023/06/19 02:24:41;;;;;;;7.50;6.30;;;;;;;;;;5033817;28;20482;-82
2023/06/19 02:27:07;;;;;;;6.32;5.72;;;;;;;;;;5033757;28;20375;-82
2023/06/19 02:29:33;;;;;;;5.68;5.28;;;;;;;;;;5033631;28;20390;-82
2023/06/19 02:31:59;;;;;;;5.30;4.90;;;;;;;;;;5033610;28;20398;-82
2023/06/19 02:34:25;;;;;;;5.50;5.05;;;;;;;;;;5033676;28;20391;-82
2023/06/19 02:36:51;;;;;;;5.50;5.00;;;;;;;;;;5033457;28;20399;-82
2023/06/19 02:39:18;;;;;;;5.63;5.22;;;;;;;;;;5033519;28;20375;-82
2023/06/19 02:41:45;;;;;;;5.87;5.47;;;;;;;;;;5033375;28;20379;-81
2023/06/19 02:44:15;;;;;;;6.68;6.18;;;;;;;;;;5033531;28;20884;-82
2023/06/19 02:46:41;;;;;;;6.28;5.88;;;;;;;;;;5032461;28;20402;-82
2023/06/19 02:49:07;;;;;;;6.78;6.18;;;;;;;;;;5032902;28;20386;-82
2023/06/19 02:51:33;;;;;;;6.90;6.30;;;;;;;;;;5033198;28;20387;-81
2023/06/19 02:53:59;;;;;;;6.32;5.93;;;;;;;;;;5033306;28;20402;-82
2023/06/19 02:56:25;;;;;;;6.18;5.68;;;;;;;;;;5033579;28;20415;-81
2023/06/19 02:58:52;;;;;;;5.65;5.25;;;;;;;;;;5045745;28;20817;-82
2023/06/19 03:01:18;;;;;;;6.10;5.60;;;;;;;;;;5038688;28;20838;-82
2023/06/19 03:03:46;;;;;;;6.53;6.00;;;;;;;;;;5051699;28;20398;-82
2023/06/19 03:06:13;;;;;;;6.00;5.50;;;;;;;;;;5033780;28;20389;-82
2023/06/19 03:08:39;;;;;;;6.40;5.97;;;;;;;;;;5012807;28;20420;-82
2023/06/19 03:11:05;;;;;;;5.47;5.18;;;;;;;;;;5011932;28;20391;-82
2023/06/19 03:13:49;;;;;;;6.63;6.13;;;;;;;;;;5013074;28;20475;-82
2023/06/19 03:16:16;;;;;;;6.03;5.53;;;;;;;;;;5012873;28;20420;-82
2023/06/19 03:18:44;;;;;;;5.80;5.40;;;;;;;;;;5011631;28;20941;-82
2023/06/19 03:21:10;;;;;;;5.28;4.97;;;;;;;;;;5012851;28;20388;-82
2023/06/19 03:23:36;;;;;;;8.25;7.45;;;;;;;;;;5012930;28;20422;-82
2023/06/19 03:26:03;;;;;;;6.30;5.80;;;;;;;;;;5012727;28;20377;-82
2023/06/19 03:28:29;;;;;;;5.70;5.30;;;;;;;;;;5017350;28;20755;-82
2023/06/19 03:30:55;;;;;;;6.20;5.70;;;;;;;;;;5032431;28;20875;-82
2023/06/19 03:33:21;;;;;;;5.90;5.50;;;;;;;;;;5032539;28;20391;-82
2023/06/19 03:35:47;;;;;;;7.05;6.53;;;;;;;;;;5032325;28;20434;-82
2023/06/19 03:38:13;;;;;;;6.23;5.73;;;;;;;;;;5032311;28;20379;-82
2023/06/19 03:40:39;;;;;;;6.13;5.72;;;;;;;;;;5031742;28;20381;-82
2023/06/19 03:43:05;;;;;;;6.22;5.82;;;;;;;;;;5032367;28;20379;-82
2023/06/19 03:45:31;;;;;;;6.90;6.40;;;;;;;;;;5032208;28;20717;-83
2023/06/19 03:47:57;;;;;;;6.70;6.20;;;;;;;;;;5032117;28;20504;-82
2023/06/19 03:50:23;;;;;;;7.60;7.10;;;;;;;;;;5032094;28;20392;-82
2023/06/19 03:52:49;;;;;;;7.90;7.30;;;;;;;;;;5032120;28;20428;-82
2023/06/19 03:55:15;;;;;;;8.25;7.65;;;;;;;;;;5031864;28;20428;-82
2023/06/19 03:57:41;;;;;;;8.07;7.43;;;;;;;;;;5032762;28;20386;-82
2023/06/19 04:00:07;;;;;;;7.75;7.25;;;;;;;;;;5039329;28;20379;-82
2023/06/19 04:02:34;;;;;;;8.67;8.07;;;;;;;;;;5043939;28;20416;-81
2023/06/19 04:05:00;;;;;;;8.60;8.00;;;;;;;;;;5039375;28;20747;-81
2023/06/19 04:07:26;;;;;;;8.77;8.17;;;;;;;;;;5030198;28;20893;-81
2023/06/19 04:09:52;;;;;;;8.18;7.47;;;;;;;;;;5031682;28;20390;-82
2023/06/19 04:12:18;;;;;;;8.18;7.68;;;;;;;;;;5031698;28;20394;-82
2023/06/19 04:14:44;;;;;;;7.97;7.47;;;;;;;;;;5031720;28;20426;-82
2023/06/19 04:17:10;;;;;;;7.57;7.07;;;;;;;;;;5031473;28;20422;-82
2023/06/19 04:19:36;;;;;;;7.82;7.35;;;;;;;;;;5031346;28;20437;-84
2023/06/19 04:22:02;;;;;;;9.13;8.43;;;;;;;;;;5031442;28;20367;-83
2023/06/19 04:24:28;;;;;;;9.80;8.97;;;;;;;;;;5031682;28;20376;-83
2023/06/19 04:26:54;;;;;;;9.15;8.55;;;;;;;;;;5031490;28;20389;-83
2023/06/19 04:29:20;;;;;;;8.98;8.38;;;;;;;;;;5031420;28;20441;-83
2023/06/19 04:31:49;;;;;;;8.70;8.15;;;;;;;;;;5031390;28;20955;-83
2023/06/19 04:34:21;;;;;;;10.07;9.27;;;;;;;;;;5031447;28;21268;-83
2023/06/19 04:36:48;;;;;;;9.85;9.02;;;;;;;;;;5031180;28;20438;-83
2023/06/19 04:39:15;;;;;;;9.70;8.98;;;;;;;;;;5031403;28;20441;-82
2023/06/19 04:41:42;;;;;;;10.07;9.27;;;;;;;;;;5031335;28;20730;-82
2023/06/19 04:44:08;;;;;;;9.82;9.13;;;;;;;;;;5030612;28;20421;-82
2023/06/19 04:46:34;;;;;;;10.40;9.60;;;;;;;;;;5029910;28;20390;-82
2023/06/19 04:49:03;;;;;;;9.73;9.13;;;;;;;;;;5031232;28;20391;-83
2023/06/19 04:51:29;;;;;;;9.97;9.30;;;;;;;;;;5031524;28;20386;-83
2023/06/19 04:53:55;;;;;;;8.70;8.10;;;;;;;;;;5032029;28;20419;-83
2023/06/19 04:56:21;;;;;;;9.88;9.10;;;;;;;;;;5030758;28;20414;-83
2023/06/19 04:58:48;;;;;;;10.00;9.30;;;;;;;;;;5035555;28;20370;-82
2023/06/19 05:01:15;;;;;;;9.52;8.82;;;;;;;;;;5034334;28;20386;-82
2023/06/19 05:03:41;;;;;;;10.23;9.43;;;;;;;;;;5043051;28;20391;-81
2023/06/19 05:06:07;;;;;;;10.05;9.45;;;;;;;;;;5037607;28;20409;-82
2023/06/19 05:08:33;;;;;;;9.93;9.32;;;;;;;;;;5030795;28;20430;-82
2023/06/19 05:10:59;;;;;;;9.35;8.65;;;;;;;;;;5031026;28;20383;-82
2023/06/19 05:13:25;;;;;;;8.85;8.25;;;;;;;;;;5029779;28;20387;-82
2023/06/19 05:15:51;;;;;;;10.57;9.77;;;;;;;;;;5030897;28;20433;-82
2023/06/19 05:18:17;;;;;;;9.93;9.20;;;;;;;;;;5030961;28;20470;-82
2023/06/19 05:20:44;;;;;;;9.50;8.73;;;;;;;;;;5030571;28;20891;-82
2023/06/19 05:23:10;;;;;;;9.55;8.75;;;;;;;;;;5030970;28;20388;-82
2023/06/19 05:25:36;;;;;;;9.80;9.10;;;;;;;;;;5030865;28;20394;-82
2023/06/19 05:28:02;;;;;;;10.45;9.55;;;;;;;;;;5030845;28;20387;-82
2023/06/19 05:30:28;;;;;;;10.77;9.93;;;;;;;;;;5030873;28;20422;-82
2023/06/19 05:32:54;;;;;;;9.70;9.10;;;;;;;;;;5031135;28;20418;-82
2023/06/19 05:35:20;;;;;;;10.23;9.52;;;;;;;;;;5034508;28;20409;-82
2023/06/19 05:37:48;;;;;;;9.75;9.05;;;;;;;;;;5033843;28;21273;-82
2023/06/19 05:40:14;;;;;;;9.43;8.83;;;;;;;;;;5034496;28;20479;-82
2023/06/19 05:42:40;;;;;;;10.27;9.57;;;;;;;;;;5034017;28;20383;-82
2023/06/19 05:45:07;;;;;;;10.15;9.52;;;;;;;;;;5033076;28;20383;-82
2023/06/19 05:47:33;;;;;;;11.23;10.13;;;;;;;;;;5034346;28;20378;-82
2023/06/19 05:49:59;;;;;;;10.43;9.73;;;;;;;;;;5034348;28;20371;-82
2023/06/19 05:52:25;;;;;;;9.68;9.00;;;;;;;;;;5034361;28;20382;-82
2023/06/19 05:54:53;;;;;;;10.40;9.50;;;;;;;;;;5034277;28;20839;-82
2023/06/19 05:57:20;;;;;;;10.13;9.35;;;;;;;;;;5034018;28;20903;-81
2023/06/19 05:59:50;;;;;;;10.13;9.32;;;;;;;;;;5037434;28;20389;-82
2023/06/19 06:02:16;;;;;;;8.75;8.05;;;;;;;;;;5047488;28;20383;-82
2023/06/19 06:04:42;;;;;;;9.68;8.85;;;;;;;;;;5041747;28;20390;-82
2023/06/19 06:07:08;;;;;;;9.20;8.60;;;;;;;;;;5045827;28;20389;-82
2023/06/19 06:09:34;;;;;;;8.13;7.53;;;;;;;;;;5034128;28;20394;-82
2023/06/19 06:12:00;;;;;;;9.07;8.40;;;;;;;;;;5032597;28;20755;-82
2023/06/19 06:14:26;;;;;;;8.27;7.72;;;;;;;;;;5033676;28;20457;-82
2023/06/19 06:16:53;;;;;;;8.15;7.53;;;;;;;;;;5033505;28;20914;-82
2023/06/19 06:19:25;;;;;;;8.48;7.80;;;;;;;;;;5033864;28;20383;-82
2023/06/19 06:21:51;;;;;;;9.50;8.80;;;;;;;;;;5033792;28;20376;-82
2023/06/19 06:24:17;;;;;;;10.30;9.40;;;;;;;;;;5033823;28;20840;-82
2023/06/19 06:26:43;;;;;;;9.23;8.40;;;;;;;;;;5033593;28;20383;-82
2023/06/19 06:29:09;;;;;;;9.48;8.68;;;;;;;;;;5033725;28;20398;-82
2023/06/19 06:31:39;;;;;;;8.85;8.15;;;;;;;;;;5033523;28;20391;-82
2023/06/19 06:34:05;;;;;;;8.60;8.00;;;;;;;;;;5032294;28;20392;-82
2023/06/19 06:36:30;;;;;;;7.28;6.78;;;;;;;;;;5033429;28;20489;-82
2023/06/19 06:38:56;;;;;;;7.97;7.38;;;;;;;;;;5033400;28;20387;-82
2023/06/19 06:41:22;;;;;;;7.50;6.90;;;;;;;;;;5033410;28;20385;-82
2023/06/19 06:43:48;;;;;;;6.88;6.47;;;;;;;;;;5033145;28;20383;-82
2023/06/19 06:46:14;;;;;;;6.90;6.40;;;;;;;;;;5033319;28;20410;-82
2023/06/19 06:48:40;;;;;;;6.80;6.20;;;;;;;;;;5033319;28;20391;-83
2023/06/19 06:51:07;;;;;;;7.18;6.68;;;;;;;;;;5032421;28;20870;-82
2023/06/19 06:53:33;;;;;;;5.97;5.57;;;;;;;;;;5033317;28;20391;-83
2023/06/19 06:56:02;;;;;;;6.40;5.90;;;;;;;;;;5033143;28;20414;-82
2023/06/19 06:58:29;;;;;;;6.70;6.20;;;;;;;;;;5033080;28;20390;-82
2023/06/19 07:00:55;;;;;;;6.90;6.43;;;;;;;;;;5036918;28;20499;-82
2023/06/19 07:03:21;;;;;;;6.90;6.40;;;;;;;;;;5036743;28;20391;-82
2023/06/19 07:05:51;;;;;;;7.07;6.68;;;;;;;;;;5039031;28;20837;-82
2023/06/19 07:08:17;;;;;;;7.45;6.95;;;;;;;;;;5041115;28;20413;-82
2023/06/19 07:10:43;;;;;;;6.43;6.03;;;;;;;;;;5044995;28;20381;-82
2023/06/19 07:13:09;;;;;;;6.80;6.20;;;;;;;;;;5038481;28;20396;-82
2023/06/19 07:15:35;;;;;;;6.90;6.40;;;;;;;;;;5031346;28;20411;-82
2023/06/19 07:18:01;;;;;;;6.75;6.25;;;;;;;;;;5032524;28;20382;-82
2023/06/19 07:20:27;;;;;;;6.60;6.10;;;;;;;;;;5032471;28;20803;-83
2023/06/19 07:22:53;;;;;;;7.30;6.80;;;;;;;;;;5032754;28;20455;-82
2023/06/19 07:25:19;;;;;;;6.63;6.22;;;;;;;;;;5032597;28;20379;-83
2023/06/19 07:27:45;;;;;;;6.88;6.40;;;;;;;;;;5032365;28;20371;-82
2023/06/19 07:30:11;;;;;;;6.10;5.65;;;;;;;;;;5032595;28;20387;-83
2023/06/19 07:32:38;;;;;;;9.13;6.68;;;;;;;;;;5032450;28;20872;-82
2023/06/19 07:35:05;;;;;;;7.25;6.38;;;;;;;;;;5032501;28;20395;-82
2023/06/19 07:37:31;;;;;;;7.22;6.07;;;;;;;;;;5032132;28;20399;-82
2023/06/19 07:39:57;;;;;;;7.20;6.30;;;;;;;;;;5032386;28;20394;-83
2023/06/19 07:42:23;;;;;;;6.63;6.13;;;;;;;;;;5032260;28;20445;-83
2023/06/19 07:44:49;;;;;;;11.93;7.00;;;;;;;;;;5032308;28;20411;-83
2023/06/19 07:47:17;;;;;;;7.95;7.18;;;;;;;;;;5031594;28;20415;-83
2023/06/19 07:49:44;;;;;;;7.23;6.73;;;;;;;;;;5032060;28;20383;-83
2023/06/19 07:52:10;;;;;;;6.18;5.78;;;;;;;;;;5032059;28;20396;-83
2023/06/19 07:54:36;;;;;;;6.10;5.60;;;;;;;;;;5032094;28;20387;-83
2023/06/19 07:57:02;;;;;;;6.10;5.70;;;;;;;;;;5029877;28;20764;-83
2023/06/19 07:59:28;;;;;;;6.30;5.80;;;;;;;;;;5032082;28;20418;-83
2023/06/19 08:01:54;;;;;;;6.97;6.57;;;;;;;;;;5035692;28;20458;-83
2023/06/19 08:04:20;;;;;;;6.40;6.00;;;;;;;;;;5041838;28;20395;-84
2023/06/19 08:06:46;;;;;;;6.55;6.15;;;;;;;;;;5043753;28;20406;-83
2023/06/19 08:09:12;;;;;;;5.97;5.60;;;;;;;;;;5035673;28;20426;-84
2023/06/19 08:11:38;;;;;;;6.18;5.78;;;;;;;;;;5043268;28;20382;-83
2023/06/19 08:14:04;;;;;;;6.10;5.65;;;;;;;;;;5034342;28;20387;-83
2023/06/19 08:16:30;;;;;;;5.47;5.17;;;;;;;;;;5031648;28;20474;-83
2023/06/19 08:18:56;;;;;;;6.00;5.60;;;;;;;;;;5031682;28;20465;-84
2023/06/19 08:21:22;;;;;;;5.60;5.20;;;;;;;;;;5031657;28;20392;-84
2023/06/19 08:23:49;;;;;;;6.65;5.70;;;;;;;;;;5031615;28;20449;-84
2023/06/19 08:26:15;;;;;;;6.30;5.70;;;;;;;;;;5031295;28;20391;-84
2023/06/19 08:28:41;;;;;;;6.22;5.82;;;;;;;;;;5031536;28;20387;-84
2023/06/19 08:31:07;;;;;;;6.10;5.63;;;;;;;;;;5031497;28;20380;-84
2023/06/19 08:33:35;;;;;;;5.95;5.50;;;;;;;;;;5031518;28;20403;-84
2023/06/19 08:36:01;;;;;;;5.85;5.40;;;;;;;;;;5031357;28;20446;-84
2023/06/19 08:38:27;;;;;;;6.32;5.93;;;;;;;;;;5031416;28;20387;-83
2023/06/19 08:40:55;;;;;;;6.20;5.80;;;;;;;;;;5031318;28;20379;-83
2023/06/19 08:43:21;;;;;;;5.82;5.43;;;;;;;;;;5031131;28;20457;-83
2023/06/19 08:46:11;;;;;;;6.43;5.80;;;;;;;;;;5031236;28;20860;-83
2023/06/19 08:48:38;;;;;;;6.40;5.90;;;;;;;;;;5031188;28;20375;-84
2023/06/19 08:51:04;;;;;;;5.63;5.22;;;;;;;;;;5029505;28;20388;-84
2023/06/19 08:53:33;;;;;;;7.28;6.63;;;;;;;;;;5031239;28;20861;-83
2023/06/19 08:55:59;;;;;;;7.65;7.05;;;;;;;;;;5031110;28;20411;-83
2023/06/19 08:58:25;;;;;;;7.20;6.70;;;;;;;;;;5031047;28;20745;-84
2023/06/19 09:00:51;;;;;;;7.95;7.18;;;;;;;;;;5031252;28;20386;-83
2023/06/19 09:03:21;;;;;;;6.47;5.88;;;;;;;;;;5031183;28;20772;-83
2023/06/19 09:05:50;;;;;;;6.97;6.47;;;;;;;;;;5031110;28;20458;-83
2023/06/19 09:08:16;;;;;;;6.90;6.30;;;;;;;;;;5038127;28;20778;-83
2023/06/19 09:10:43;;;;;;;7.07;6.45;;;;;;;;;;5049336;28;20383;-84
2023/06/19 09:13:09;;;;;;;6.78;6.18;;;;;;;;;;5053574;28;20389;-84
2023/06/19 09:15:36;;;;;;;5.68;5.38;;;;;;;;;;5034903;28;20410;-84
2023/06/19 09:18:02;;;;;;;5.55;5.13;;;;;;;;;;5034940;28;20382;-83
2023/06/19 09:20:29;;;;;;;7.82;7.03;;;;;;;;;;5035093;28;20375;-84
2023/06/19 09:22:55;;;;;;;6.00;5.60;;;;;;;;;;5034970;28;20385;-84
2023/06/19 09:25:23;;;;;;;5.93;5.40;;;;;;;;;;5034481;28;20868;-84
2023/06/19 09:27:49;;;;;;;5.97;5.50;;;;;;;;;;5034725;28;20466;-83
2023/06/19 09:30:15;;;;;;;5.45;5.03;;;;;;;;;;5033869;28;20387;-83
2023/06/19 09:32:41;;;;;;;4.72;4.32;;;;;;;;;;5034781;28;20410;-84
2023/06/19 09:35:08;;;;;;;6.20;4.15;;;;;;;;;;5034530;28;20899;-83
2023/06/19 09:37:34;;;;;;;5.00;4.70;;;;;;;;;;5034504;28;20411;-83
2023/06/19 09:40:00;;;;;;;4.40;4.10;;;;;;;;;;5034254;28;20895;-83
2023/06/19 09:42:32;;;;;;;4.72;4.40;;;;;;;;;;5032845;28;20383;-82
2023/06/19 09:45:04;;;;;;;5.05;4.75;;;;;;;;;;5034475;28;20422;-83
2023/06/19 09:47:36;;;;;;;4.67;4.30;;;;;;;;;;5034465;28;20418;-83
2023/06/19 09:50:03;;;;;;;4.50;4.20;;;;;;;;;;5034705;28;20379;-84
2023/06/19 09:52:30;;;;;;;4.85;4.28;;;;;;;;;;5034326;28;20387;-84
2023/06/19 09:54:57;;;;;;;5.33;4.70;;;;;;;;;;5034265;28;20441;-83
2023/06/19 09:57:24;;;;;;;4.57;4.18;;;;;;;;;;5034228;28;20410;-85
2023/06/19 09:59:56;;;;;;;4.80;4.40;;;;;;;;;;5034376;28;20380;-84
2023/06/19 10:02:22;;;;;;;4.57;4.28;;;;;;;;;;5034213;28;20448;-84
2023/06/19 10:04:53;;;;;;;4.30;4.00;;;;;;;;;;5034113;28;20410;-84
2023/06/19 10:07:23;;;;;;;4.80;4.50;;;;;;;;;;5033830;28;20489;-84
2023/06/19 10:10:15;;;;;;;4.40;4.00;;;;;;;;;;5035188;28;20393;-84
2023/06/19 10:12:45;;;;;;;4.30;4.00;;;;;;;;;;5040838;28;20417;-84
2023/06/19 10:15:22;;;;;;;4.50;4.20;;;;;;;;;;5043991;28;20386;-84
2023/06/19 10:17:59;;;;;;;4.28;3.97;;;;;;;;;;5041390;28;20402;-84
2023/06/19 10:20:31;;;;;;;4.35;4.05;;;;;;;;;;5040430;28;20394;-84
2023/06/19 10:22:58;;;;;;;4.47;4.07;;;;;;;;;;5032357;28;20383;-84
2023/06/19 10:25:27;;;;;;;4.85;4.45;;;;;;;;;;5033821;28;20852;-84
2023/06/19 10:27:54;;;;;;;4.70;4.20;;;;;;;;;;5033684;28;20387;-85
2023/06/19 10:30:20;;;;;;;4.13;3.85;;;;;;;;;;5033664;28;20371;-83
2023/06/19 10:32:47;;;;;;;4.25;3.95;;;;;;;;;;5033440;28;20510;-84
2023/06/19 10:35:13;;;;;;;4.07;3.78;;;;;;;;;;5032274;28;20745;-83
2023/06/19 10:37:40;;;;;;;4.30;4.00;;;;;;;;;;5033461;28;20402;-84
2023/06/19 10:40:10;;;;;;;4.60;4.20;;;;;;;;;;5033435;28;20693;-83
2023/06/19 10:42:42;;;;;;;4.05;3.75;;;;;;;;;;5033366;28;20474;-84
2023/06/19 10:45:10;;;;;;;4.40;4.00;;;;;;;;;;5033472;28;20406;-84
2023/06/19 10:47:38;;;;;;;4.50;4.07;;;;;;;;;;5033048;28;20492;-84
2023/06/19 10:50:04;;;;;;;4.60;4.20;;;;;;;;;;5033479;28;20421;-84
2023/06/19 10:52:31;;;;;;;4.67;4.20;;;;;;;;;;5033240;28;20436;-84
2023/06/19 10:54:57;;;;;;;4.35;3.95;;;;;;;;;;5032246;28;20860;-83
2023/06/19 10:57:27;;;;;;;4.30;4.00;;;;;;;;;;5033028;28;20414;-83
2023/06/19 10:59:53;;;;;;;4.30;3.90;;;;;;;;;;5032521;28;20387;-83
2023/06/19 11:02:19;;;;;;;4.53;4.10;;;;;;;;;;5032532;28;20383;-84
2023/06/19 11:04:45;;;;;;;4.47;4.07;;;;;;;;;;5031972;28;20865;-83
2023/06/19 11:07:11;;;;;;;4.23;3.93;;;;;;;;;;5032856;28;20417;-84
2023/06/19 11:09:37;;;;;;;4.38;4.00;;;;;;;;;;5033026;28;20383;-83
2023/06/19 11:12:06;;;;;;;5.38;4.22;;;;;;;;;;5032776;28;20375;-83
2023/06/19 11:14:32;;;;;;;7.32;4.28;;;;;;;;;;5036131;28;20384;-83
2023/06/19 11:16:58;;;;;;;12.90;4.60;;;;;;;;;;5037672;28;20795;-83
2023/06/19 11:19:30;;;;;;;4.43;4.03;;;;;;;;;;5032956;28;20424;-83
2023/06/19 11:21:57;;;;;;;11.00;4.60;;;;;;;;;;5033988;28;20406;-83
2023/06/19 11:24:23;;;;;;;9.25;4.63;;;;;;;;;;5052616;28;20377;-84
2023/06/19 11:26:50;;;;;;;6.30;4.22;;;;;;;;;;5052531;28;20389;-83
2023/06/19 11:29:21;;;;;;;7.45;4.60;;;;;;;;;;5052420;28;20389;-83
2023/06/19 11:31:48;;;;;;;7.10;4.38;;;;;;;;;;5038326;28;20398;-83
2023/06/19 11:34:14;;;;;;;8.45;4.40;;;;;;;;;;5031957;28;20448;-84
2023/06/19 11:36:41;;;;;;;16.88;4.65;;;;;;;;;;5031026;28;20408;-84
2023/06/19 11:39:14;;;;;;;26.58;5.05;;;;;;;;;;5032296;28;20391;-84
2023/06/19 11:41:41;;;;;;;10.50;4.20;;;;;;;;;;5031228;28;20396;-84
2023/06/19 11:44:11;;;;;;;4.20;3.90;;;;;;;;;;5032304;28;20883;-83
2023/06/19 11:46:37;;;;;;;7.13;4.35;;;;;;;;;;5032296;28;20387;-84
2023/06/19 11:49:12;;;;;;;5.82;4.03;;;;;;;;;;5031033;28;20399;-83
2023/06/19 11:51:46;;;;;;;5.10;4.70;;;;;;;;;;5068731;28;20343;-84
2023/06/19 11:54:17;;;;;;;4.68;4.28;;;;;;;;;;5068733;28;20384;-84
2023/06/19 11:56:43;;;;;;;4.60;4.00;;;;;;;;;;5068564;28;20377;-85
2023/06/19 11:59:10;;;;;;;4.20;3.90;;;;;;;;;;5068361;28;20400;-84
2023/06/19 12:01:36;;;;;;;4.57;4.28;;;;;;;;;;5068528;28;20427;-84
2023/06/19 12:04:03;;;;;;;4.90;4.50;;;;;;;;;;5068496;28;20412;-85
2023/06/19 12:06:30;;;;;;;4.60;4.20;;;;;;;;;;5068425;28;20762;-84
2023/06/19 12:08:56;;;;;;;4.80;4.40;;;;;;;;;;5067976;28;20427;-84
2023/06/19 12:11:22;;;;;;;4.90;4.40;;;;;;;;;;5068314;28;20444;-83
2023/06/19 12:13:48;;;;;;;4.65;4.25;;;;;;;;;;5054343;28;20396;-83
2023/06/19 12:16:14;;;;;;;4.75;4.30;;;;;;;;;;5060253;28;20916;-84
2023/06/19 12:18:41;;;;;;;4.60;4.20;;;;;;;;;;5079533;28;20466;-84
2023/06/19 12:21:07;;;;;;;4.63;3.95;;;;;;;;;;5079566;28;20384;-83
2023/06/19 12:23:33;;;;;;;4.30;3.90;;;;;;;;;;5076480;28;20391;-84
2023/06/19 12:25:59;;;;;;;4.53;4.22;;;;;;;;;;5072894;28;20495;-84
2023/06/19 12:28:25;;;;;;;4.45;4.15;;;;;;;;;;5066113;28;20460;-84
2023/06/19 12:30:52;;;;;;;4.35;4.05;;;;;;;;;;5066452;28;20487;-84
2023/06/19 12:33:20;;;;;;;4.40;4.10;;;;;;;;;;5068160;28;20746;-84
2023/06/19 12:35:46;;;;;;;4.70;4.30;;;;;;;;;;5067703;28;20466;-84
2023/06/19 12:38:12;;;;;;;4.55;4.22;;;;;;;;;;5067488;28;20380;-84
2023/06/19 12:40:38;;;;;;;4.53;4.18;;;;;;;;;;5067725;28;20389;-83
2023/06/19 12:43:04;;;;;;;4.70;4.40;;;;;;;;;;5067711;28;20482;-84
2023/06/19 12:45:30;;;;;;;4.73;4.33;;;;;;;;;;5067496;28;20389;-84
2023/06/19 12:47:56;;;;;;;4.60;4.30;;;;;;;;;;5067173;28;20427;-84
2023/06/19 12:50:22;;;;;;;4.53;4.22;;;;;;;;;;5076277;28;20415;-85
2023/06/19 12:52:48;;;;;;;4.55;4.25;;;;;;;;;;5087969;28;20717;-84
2023/06/19 12:55:15;;;;;;;4.77;4.37;;;;;;;;;;5087452;28;20379;-84
2023/06/19 12:57:41;;;;;;;4.70;4.30;;;;;;;;;;5087530;28;20456;-84
2023/06/19 13:00:11;;;;;;;4.83;4.43;;;;;;;;;;5087553;28;20864;-84
2023/06/19 13:02:37;;;;;;;4.50;4.20;;;;;;;;;;5076883;28;20881;-84
2023/06/19 13:05:03;;;;;;;4.30;4.00;;;;;;;;;;5073719;28;20726;-84
2023/06/19 13:07:29;;;;;;;4.75;4.35;;;;;;;;;;5073889;28;20407;-84
2023/06/19 13:09:55;;;;;;;4.93;4.30;;;;;;;;;;5066432;28;20440;-84
2023/06/19 13:12:23;;;;;;;4.63;4.22;;;;;;;;;;5073887;28;20437;-84
2023/06/19 13:14:49;;;;;;;4.70;4.30;;;;;;;;;;5073582;28;20513;-84
2023/06/19 13:17:15;;;;;;;7.60;4.38;;;;;;;;;;5073732;28;20471;-84
2023/06/19 13:19:41;;;;;;;4.70;4.30;;;;;;;;;;5082474;28;20382;-84
2023/06/19 13:22:07;;;;;;;4.95;4.55;;;;;;;;;;5082847;28;20525;-84
2023/06/19 13:24:33;;;;;;;5.60;4.73;;;;;;;;;;5083808;28;20465;-84
2023/06/19 13:26:59;;;;;;;4.90;4.50;;;;;;;;;;5084261;28;20494;-83
2023/06/19 13:29:25;;;;;;;4.63;4.28;;;;;;;;;;5089691;28;20374;-84
2023/06/19 13:31:51;;;;;;;6.57;4.80;;;;;;;;;;5080348;28;20391;-84
2023/06/19 13:34:18;;;;;;;4.57;4.23;;;;;;;;;;5073183;28;20849;-84
2023/06/19 13:36:44;;;;;;;5.97;4.47;;;;;;;;;;5073092;28;20454;-84
2023/06/19 13:39:10;;;;;;;4.95;4.53;;;;;;;;;;5073452;28;20413;-84
2023/06/19 13:41:36;;;;;;;5.78;5.38;;;;;;;;;;5069934;28;20395;-84
2023/06/19 13:44:02;;;;;;;5.00;4.38;;;;;;;;;;5073078;28;20437;-84
2023/06/19 13:46:30;;;;;;;4.50;4.20;;;;;;;;;;5073236;28;20382;-84
2023/06/19 13:48:56;;;;;;;4.78;4.43;;;;;;;;;;5073167;28;20384;-84
2023/06/19 13:51:23;;;;;;;5.05;4.65;;;;;;;;;;5072879;28;20419;-84
2023/06/19 13:53:49;;;;;;;6.47;4.70;;;;;;;;;;5072955;28;20481;-84
2023/06/19 13:56:15;;;;;;;6.07;5.00;;;;;;;;;;5073106;28;20375;-83
2023/06/19 13:58:41;;;;;;;4.78;4.40;;;;;;;;;;5054904;28;20449;-84
2023/06/19 14:01:07;;;;;;;4.78;4.38;;;;;;;;;;5072861;28;20394;-84
2023/06/19 14:03:34;;;;;;;4.88;4.47;;;;;;;;;;5072783;28;20468;-84
2023/06/19 14:06:00;;;;;;;5.47;4.97;;;;;;;;;;5072833;28;20869;-84
2023/06/19 14:08:26;;;;;;;5.03;4.63;;;;;;;;;;5072661;28;20422;-84
2023/06/19 14:10:52;;;;;;;6.00;5.40;;;;;;;;;;5072554;28;20468;-85
2023/06/19 14:13:18;;;;;;;5.53;5.10;;;;;;;;;;5071605;28;20380;-84
2023/06/19 14:15:44;;;;;;;5.05;4.65;;;;;;;;;;5054695;28;20924;-84
2023/06/19 14:18:10;;;;;;;4.90;4.50;;;;;;;;;;5072471;28;20467;-83
2023/06/19 14:20:36;;;;;;;5.30;4.90;;;;;;;;;;5072662;28;20392;-84
2023/06/19 14:23:02;;;;;;;5.28;4.88;;;;;;;;;;5079717;28;20380;-84
2023/06/19 14:25:28;;;;;;;5.28;4.78;;;;;;;;;;5082396;28;20383;-84
2023/06/19 14:27:54;;;;;;;5.40;4.90;;;;;;;;;;5066503;28;20736;-84
2023/06/19 14:30:20;;;;;;;5.10;4.70;;;;;;;;;;5079588;28;20403;-84
2023/06/19 14:32:46;;;;;;;5.75;4.63;;;;;;;;;;5084725;28;20393;-84
2023/06/19 14:35:12;;;;;;;5.75;5.13;;;;;;;;;;5092469;28;20374;-83
2023/06/19 14:37:38;;;;;;;5.45;5.03;;;;;;;;;;5092344;28;20373;-84
2023/06/19 14:40:04;;;;;;;5.95;5.15;;;;;;;;;;5092180;28;20739;-84